Time;durP1;ratioP1;P1;durP2;ratioP2;P2;SDS_P1;SDS_P2;PMS_P1;PMS_P2;Temp;Humidity;BMP_temperature;BMP_pressure;BME280_temperature;BME280_humidity;BME280_pressure;Samples;Min_cycle;Max_cycle;Signal;HPM_P1;HPM_P2
2022/12/19 00:01:15;;;;;;;25.73;19.33;;;;;;;4.70;100.00;103755.22;2104330;28;20247;-61
2022/12/19 00:02:15;;;;;;;25.17;18.40;;;;;;;4.36;100.00;103689.97;2106022;28;20206;-61
2022/12/19 00:03:15;;;;;;;29.07;20.43;;;;;;;4.79;100.00;103759.63;2107809;28;20691;-61
2022/12/19 00:04:18;;;;;;;26.83;19.07;;;;;;;4.85;100.00;103758.38;2113433;28;20204;-61
2022/12/19 00:05:21;;;;;;;26.95;18.85;;;;;;;4.91;100.00;103756.25;2106113;28;20181;-61
2022/12/19 00:06:21;;;;;;;27.70;19.73;;;;;;;4.94;100.00;103752.88;2113978;28;20207;-61
2022/12/19 00:07:22;;;;;;;27.00;19.53;;;;;;;4.96;100.00;103748.69;2114701;28;20222;-61
2022/12/19 00:08:22;;;;;;;26.07;19.30;;;;;;;4.93;100.00;103746.56;2107457;28;20261;-61
2022/12/19 00:09:24;;;;;;;26.83;19.03;;;;;;;5.04;100.00;103758.09;2106035;28;20279;-61
2022/12/19 00:10:24;;;;;;;25.98;19.42;;;;;;;5.05;100.00;103760.53;2109786;28;20177;-61
2022/12/19 00:11:26;;;;;;;27.53;19.23;;;;;;;5.07;100.00;103773.97;2113824;28;20501;-61
2022/12/19 00:12:26;;;;;;;26.05;19.42;;;;;;;4.18;100.00;103607.84;2112260;28;20192;-61
2022/12/19 00:13:29;;;;;;;25.80;19.10;;;;;;;5.10;100.00;103752.13;2105870;28;20260;-62
2022/12/19 00:14:30;;;;;;;25.67;19.00;;;;;;;5.15;100.00;103753.91;2105354;28;20193;-61
2022/12/19 00:15:33;;;;;;;28.10;19.13;;;;;;;5.18;100.00;103750.53;2113356;28;20170;-62
2022/12/19 00:16:33;;;;;;;25.67;18.73;;;;;;;5.20;100.00;103756.50;2114350;28;20699;-61
2022/12/19 00:17:34;;;;;;;26.53;18.30;;;;;;;5.13;100.00;103743.22;2114366;28;20611;-61
2022/12/19 00:18:35;;;;;;;28.00;20.27;;;;;;;5.15;100.00;103742.91;2108621;28;20285;-61
2022/12/19 00:19:35;;;;;;;26.65;19.42;;;;;;;5.12;100.00;103741.63;2109359;28;20208;-61
2022/12/19 00:20:36;;;;;;;25.63;18.30;;;;;;;5.18;100.00;103745.81;2112921;28;20185;-61
2022/12/19 00:21:37;;;;;;;25.40;18.37;;;;;;;5.21;100.00;103749.88;2111797;28;20206;-61
2022/12/19 00:22:38;;;;;;;24.70;18.00;;;;;;;5.20;100.00;103754.59;2105740;28;20178;-61
2022/12/19 00:23:38;;;;;;;27.50;19.10;;;;;;;5.17;100.00;103757.13;2106005;28;20170;-61
2022/12/19 00:24:39;;;;;;;26.10;18.73;;;;;;;5.08;100.00;103748.09;2113969;28;20181;-61
2022/12/19 00:25:39;;;;;;;24.93;18.67;;;;;;;5.05;100.00;103741.28;2113841;28;20189;-61
2022/12/19 00:26:40;;;;;;;27.23;19.10;;;;;;;4.25;100.00;103620.00;2113865;28;20276;-61
2022/12/19 00:27:40;;;;;;;24.70;18.07;;;;;;;5.11;100.00;103762.00;2114289;28;20186;-61
2022/12/19 00:28:43;;;;;;;23.27;17.60;;;;;;;5.03;100.00;103750.97;2110544;28;20217;-61
2022/12/19 00:29:44;;;;;;;27.85;19.00;;;;;;;5.10;100.00;103765.88;2108210;28;20252;-61
2022/12/19 00:30:44;;;;;;;25.50;18.40;;;;;;;5.08;100.00;103765.38;2111648;28;20184;-61
2022/12/19 00:31:45;;;;;;;24.90;17.80;;;;;;;5.00;100.00;103751.59;2104924;28;20730;-61
2022/12/19 00:32:46;;;;;;;26.67;18.43;;;;;;;5.02;100.00;103763.91;2114436;28;20647;-61
2022/12/19 00:33:47;;;;;;;25.42;18.45;;;;;;;4.99;100.00;103764.56;2106452;28;20566;-61
2022/12/19 00:34:48;;;;;;;26.17;18.73;;;;;;;4.88;100.00;103754.97;2112442;28;20242;-61
2022/12/19 00:35:48;;;;;;;25.03;18.07;;;;;;;4.94;100.00;103761.13;2108160;28;20236;-61
2022/12/19 00:36:49;;;;;;;23.77;17.40;;;;;;;4.93;100.00;103759.53;2110096;28;20209;-61
2022/12/19 00:37:49;;;;;;;25.47;18.80;;;;;;;4.76;100.00;103734.72;2111224;28;20193;-61
2022/12/19 00:38:51;;;;;;;26.10;18.57;;;;;;;4.87;100.00;103750.59;2107104;28;20178;-61
2022/12/19 00:39:52;;;;;;;26.02;18.45;;;;;;;4.94;100.00;103761.97;2113356;28;20185;-61
2022/12/19 00:40:52;;;;;;;25.57;19.07;;;;;;;4.95;100.00;103765.50;2105238;28;20384;-61
2022/12/19 00:41:53;;;;;;;28.00;19.20;;;;;;;4.94;100.00;103767.47;2113424;28;20581;-61
2022/12/19 00:42:53;;;;;;;25.73;18.27;;;;;;;4.95;100.00;103757.25;2107031;28;20231;-61
2022/12/19 00:44:05;;;;;;;25.90;18.70;;;;;;;4.70;100.00;103719.50;2112116;28;20220;-61
2022/12/19 00:45:06;;;;;;;26.67;18.50;;;;;;;4.97;100.00;103766.81;2107863;27;20177;-61
2022/12/19 00:46:12;;;;;;;26.80;18.73;;;;;;;4.99;100.00;103758.25;2110293;28;20222;-61
2022/12/19 00:47:12;;;;;;;27.38;18.92;;;;;;;4.94;100.00;103750.16;2109465;27;20185;-61
2022/12/19 00:48:16;;;;;;;26.40;18.60;;;;;;;4.99;100.00;103753.56;2108774;28;20197;-61
2022/12/19 00:49:16;;;;;;;26.60;19.00;;;;;;;4.92;100.00;103758.69;2111534;28;20181;-61
2022/12/19 00:50:17;;;;;;;26.90;19.73;;;;;;;4.88;100.00;103754.97;2106772;28;20264;-62
2022/12/19 00:51:19;;;;;;;24.77;18.57;;;;;;;4.89;100.00;103761.28;2113197;28;20258;-61
2022/12/19 00:52:20;;;;;;;26.65;19.00;;;;;;;4.90;100.00;103763.72;2105743;28;20181;-61
2022/12/19 00:53:20;;;;;;;27.97;19.27;;;;;;;4.85;100.00;103750.13;2113828;28;20193;-61
2022/12/19 00:54:21;;;;;;;24.80;18.63;;;;;;;4.92;100.00;103763.41;2113996;28;20177;-61
2022/12/19 00:55:21;;;;;;;24.77;18.07;;;;;;;4.89;100.00;103766.78;2113769;28;20231;-61
2022/12/19 00:56:27;;;;;;;27.57;19.23;;;;;;;4.87;100.00;103758.84;2108988;28;20174;-61
2022/12/19 00:57:28;;;;;;;26.60;18.50;;;;;;;4.88;100.00;103752.22;2105621;28;20559;-61
2022/12/19 00:58:28;;;;;;;26.17;18.73;;;;;;;4.88;100.00;103760.47;2110888;27;20299;-61
2022/12/19 00:59:29;;;;;;;28.17;19.60;;;;;;;4.76;100.00;103741.03;2120905;27;20181;-62
2022/12/19 01:00:29;;;;;;;26.77;17.90;;;;;;;4.87;100.00;103755.31;2113736;27;20177;-61
2022/12/19 01:01:33;;;;;;;23.67;17.60;;;;;;;4.85;100.00;103758.38;2122075;27;20168;-62
2022/12/19 01:02:33;;;;;;;26.00;18.27;;;;;;;4.89;100.00;103764.03;2114193;27;20286;-61
2022/12/19 01:03:34;;;;;;;26.87;19.27;;;;;;;4.93;100.00;103773.25;2113975;27;20284;-61
2022/12/19 01:04:35;;;;;;;27.83;19.43;;;;;;;4.96;100.00;103767.09;2114158;28;20466;-61
2022/12/19 01:05:35;;;;;;;26.30;18.90;;;;;;;4.96;100.00;103775.34;2108783;28;20282;-61
2022/12/19 01:06:35;;;;;;;26.67;18.37;;;;;;;4.98;100.00;103768.41;2108976;28;20266;-61
2022/12/19 01:07:36;;;;;;;26.80;18.40;;;;;;;5.01;100.00;103773.28;2111741;28;20666;-61
2022/12/19 01:08:37;;;;;;;26.03;18.47;;;;;;;5.05;100.00;103777.03;2106098;28;20174;-61
2022/12/19 01:09:37;;;;;;;23.07;17.00;;;;;;;5.06;100.00;103767.66;2114075;28;20730;-61
2022/12/19 01:10:44;;;;;;;25.00;18.73;;;;;;;5.10;100.00;103768.63;2113932;28;20221;-61
2022/12/19 01:13:04;;;;;;;27.35;18.48;;;;;;;5.12;100.00;103768.31;2105710;28;20170;-61
2022/12/19 01:14:04;;;;;;;25.00;18.47;;;;;;;5.13;100.00;103761.69;2114083;28;20207;-61
2022/12/19 01:15:05;;;;;;;24.43;17.47;;;;;;;5.12;100.00;103766.34;2114034;28;20561;-61
2022/12/19 01:16:11;;;;;;;27.90;19.47;;;;;;;5.16;100.00;103763.78;2113344;28;20182;-61
2022/12/19 01:17:11;;;;;;;26.30;18.58;;;;;;;5.18;100.00;103753.28;2113939;28;20270;-61
2022/12/19 01:18:12;;;;;;;24.37;18.40;;;;;;;5.19;100.00;103750.19;2113590;28;20189;-61
2022/12/19 01:19:12;;;;;;;25.80;18.77;;;;;;;4.76;100.00;103699.00;2113864;28;20196;-61
2022/12/19 01:20:15;;;;;;;24.97;18.67;;;;;;;5.16;100.00;103763.78;2111551;28;20176;-61
2022/12/19 01:21:16;;;;;;;24.23;18.05;;;;;;;5.13;100.00;103769.94;2104561;28;20200;-61
2022/12/19 01:22:16;;;;;;;25.17;18.30;;;;;;;5.13;100.00;103767.97;2105211;28;20182;-61
2022/12/19 01:23:17;;;;;;;28.33;19.13;;;;;;;5.17;100.00;103771.72;2105632;28;20306;-61
2022/12/19 01:24:17;;;;;;;25.80;19.10;;;;;;;5.01;100.00;103736.72;2112710;28;20189;-61
2022/12/19 01:25:18;;;;;;;27.57;19.07;;;;;;;5.14;100.00;103757.78;2107823;28;20186;-61
2022/12/19 01:26:18;;;;;;;28.50;19.57;;;;;;;5.13;100.00;103762.47;2114876;28;20271;-61
2022/12/19 01:27:19;;;;;;;26.17;19.57;;;;;;;5.11;100.00;103752.94;2118404;27;20264;-62
2022/12/19 01:28:19;;;;;;;27.63;19.40;;;;;;;5.10;100.00;103756.81;2115775;28;20192;-61
2022/12/19 01:29:20;;;;;;;28.37;19.73;;;;;;;5.08;100.00;103757.13;2120768;27;20176;-61
2022/12/19 01:30:20;;;;;;;27.87;20.27;;;;;;;5.04;100.00;103753.41;2113269;28;20178;-61
2022/12/19 01:31:21;;;;;;;29.03;21.00;;;;;;;5.02;100.00;103755.66;2113444;28;20599;-61
2022/12/19 01:32:22;;;;;;;27.10;20.52;;;;;;;5.01;100.00;103758.72;2106189;28;20186;-61
2022/12/19 01:33:22;;;;;;;31.40;19.60;;;;;;;4.91;100.00;103732.34;2105587;28;20335;-61
2022/12/19 01:34:23;;;;;;;28.10;19.97;;;;;;;5.02;100.00;103758.41;2110690;28;20624;-61
2022/12/19 01:35:24;;;;;;;28.53;19.63;;;;;;;5.03;100.00;103757.28;2113763;28;20542;-61
2022/12/19 01:36:24;;;;;;;26.67;19.40;;;;;;;5.04;100.00;103750.66;2109648;28;20264;-61
2022/12/19 01:37:25;;;;;;;26.37;19.47;;;;;;;5.11;100.00;103753.75;2104707;28;20412;-61
2022/12/19 01:38:25;;;;;;;26.93;19.57;;;;;;;5.15;100.00;103753.91;2105667;28;20181;-61
2022/12/19 01:39:25;;;;;;;28.90;19.80;;;;;;;5.11;100.00;103736.44;2114036;28;20279;-61
2022/12/19 01:40:26;;;;;;;26.07;19.37;;;;;;;5.22;100.00;103748.75;2105579;28;20193;-61
2022/12/19 01:41:26;;;;;;;28.33;19.73;;;;;;;5.25;100.00;103751.69;2111287;28;20209;-61
2022/12/19 01:42:34;;;;;;;28.40;20.20;;;;;;;5.24;100.00;103744.53;2113623;28;20192;-61
2022/12/19 01:43:53;;;;;;;27.27;19.83;;;;;;;5.24;100.00;103743.75;2113669;28;20264;-61
2022/12/19 01:45:07;;;;;;;26.45;19.02;;;;;;;5.23;100.00;103739.38;2113688;28;20196;-61
2022/12/19 01:46:13;;;;;;;25.40;19.10;;;;;;;5.22;100.00;103743.25;2105861;28;20658;-61
2022/12/19 01:47:14;;;;;;;27.58;19.45;;;;;;;5.18;100.00;103748.56;2112590;28;20683;-61
2022/12/19 01:48:32;;;;;;;27.37;19.60;;;;;;;5.20;100.00;103740.00;2113460;28;20611;-61
2022/12/19 01:49:36;;;;;;;27.25;19.42;;;;;;;5.21;100.00;103730.63;2113659;28;20188;-61
2022/12/19 01:50:47;;;;;;;28.65;19.85;;;;;;;5.22;100.00;103738.56;2106839;28;20185;-61
2022/12/19 01:51:51;;;;;;;25.67;19.58;;;;;;;5.26;100.00;103734.03;2111659;28;20222;-61
2022/12/19 01:52:52;;;;;;;28.02;19.13;;;;;;;5.11;100.00;103712.50;2113658;28;20279;-61
2022/12/19 01:53:58;;;;;;;29.27;20.00;;;;;;;5.24;100.00;103743.75;2113839;28;20194;-61
2022/12/19 01:55:00;;;;;;;27.77;20.08;;;;;;;4.89;100.00;103678.84;2109132;28;20545;-61
2022/12/19 01:56:03;;;;;;;26.83;20.63;;;;;;;5.20;100.00;103743.59;2104679;28;20195;-61
2022/12/19 01:57:09;;;;;;;28.77;19.95;;;;;;;5.19;100.00;103741.94;2107974;28;20666;-61
2022/12/19 01:58:12;;;;;;;28.30;19.58;;;;;;;5.15;100.00;103759.41;2113741;28;20168;-61
2022/12/19 01:59:17;;;;;;;28.73;19.33;;;;;;;5.09;100.00;103739.53;2113298;28;20210;-61
2022/12/19 02:00:18;;;;;;;29.80;20.13;;;;;;;5.00;100.00;103755.19;2112356;28;20583;-61
2022/12/19 02:01:18;;;;;;;28.17;20.07;;;;;;;4.95;100.00;103751.75;2104950;28;20208;-61
2022/12/19 02:02:32;;;;;;;27.43;19.70;;;;;;;4.92;100.00;103752.41;2105268;28;20431;-61
2022/12/19 02:03:37;;;;;;;28.08;19.25;;;;;;;4.91;100.00;103748.03;2105440;28;20179;-61
2022/12/19 02:04:39;;;;;;;26.55;19.08;;;;;;;4.89;100.00;103759.34;2113609;28;20184;-61
2022/12/19 02:05:40;;;;;;;27.02;18.67;;;;;;;4.84;100.00;103761.41;2113287;28;20215;-61
2022/12/19 02:06:41;;;;;;;26.53;19.70;;;;;;;4.81;100.00;103759.28;2113566;28;20195;-62
2022/12/19 02:07:43;;;;;;;27.38;19.13;;;;;;;4.82;100.00;103752.69;2113800;28;20710;-61
2022/12/19 02:08:46;;;;;;;26.55;18.58;;;;;;;4.81;100.00;103751.06;2113296;28;20191;-61
2022/12/19 02:09:50;;;;;;;25.90;19.17;;;;;;;4.74;100.00;103754.28;2113831;28;20197;-61
2022/12/19 02:10:50;;;;;;;27.05;18.48;;;;;;;4.71;100.00;103756.84;2113136;28;20229;-61
2022/12/19 02:11:52;;;;;;;27.77;19.40;;;;;;;4.70;100.00;103750.53;2113313;28;20320;-61
2022/12/19 02:12:52;;;;;;;27.80;18.80;;;;;;;4.65;100.00;103747.13;2113600;28;20379;-61
2022/12/19 02:13:52;;;;;;;25.93;18.63;;;;;;;4.75;100.00;103757.81;2113947;28;20184;-61
2022/12/19 02:14:55;;;;;;;28.83;19.53;;;;;;;4.22;100.00;103689.28;2113768;28;20254;-61
2022/12/19 02:16:19;;;;;;;26.02;18.63;;;;;;;3.69;100.00;103599.88;2112998;28;20190;-61
2022/12/19 02:18:07;;;;;;;26.35;18.92;;;;;;;4.64;100.00;103753.75;2105640;28;20564;-61
2022/12/19 02:19:44;;;;;;;27.38;18.20;;;;;;;4.44;100.00;103755.13;2104830;28;20279;-61
2022/12/19 02:21:08;;;;;;;26.90;18.77;;;;;;;4.30;100.00;103754.38;2104947;28;20249;-61
2022/12/19 02:22:11;;;;;;;28.38;18.30;;;;;;;4.26;100.00;103752.59;2106078;28;20174;-61
2022/12/19 02:23:40;;;;;;;26.33;18.83;;;;;;;4.29;100.00;103768.44;2112989;28;20208;-61
2022/12/19 02:25:14;;;;;;;26.95;19.20;;;;;;;4.14;100.00;103769.63;2108219;28;20189;-61
2022/12/19 02:26:37;;;;;;;29.95;19.27;;;;;;;4.17;100.00;103754.47;2106494;28;20197;-61
2022/12/19 02:27:53;;;;;;;28.52;19.25;;;;;;;4.20;100.00;103759.34;2113773;28;20245;-61
2022/12/19 02:28:56;;;;;;;26.77;19.05;;;;;;;4.26;100.00;103758.88;2112778;28;20726;-61
2022/12/19 02:30:30;;;;;;;29.92;19.15;;;;;;;4.29;100.00;103765.69;2112708;28;20230;-61
2022/12/19 02:31:41;;;;;;;26.08;17.58;;;;;;;4.26;100.00;103758.88;2107257;28;20174;-61
2022/12/19 02:32:50;;;;;;;24.98;18.10;;;;;;;4.27;100.00;103762.44;2110716;28;20199;-61
2022/12/19 02:34:01;;;;;;;28.55;18.70;;;;;;;4.20;100.00;103759.34;2107425;28;20198;-62
2022/12/19 02:35:20;;;;;;;27.02;18.58;;;;;;;4.17;100.00;103768.19;2109699;28;20575;-61
2022/12/19 02:36:30;;;;;;;28.55;18.33;;;;;;;4.23;100.00;103762.28;2109041;28;20186;-61
2022/12/19 02:37:35;;;;;;;25.10;18.65;;;;;;;3.89;100.00;103701.66;2109002;28;20288;-61
2022/12/19 02:38:45;;;;;;;27.15;18.67;;;;;;;4.36;100.00;103768.81;2109011;28;20192;-61
2022/12/19 02:39:57;;;;;;;27.42;18.85;;;;;;;4.46;100.00;103760.31;2109607;28;20247;-61
2022/12/19 02:41:17;;;;;;;26.45;18.95;;;;;;;4.53;100.00;103758.72;2111336;28;20205;-61
2022/12/19 02:42:30;;;;;;;26.02;18.00;;;;;;;4.59;100.00;103764.88;2108423;28;20288;-61
2022/12/19 02:43:38;;;;;;;26.40;18.27;;;;;;;4.65;100.00;103764.44;2109711;28;20265;-61
2022/12/19 02:44:44;;;;;;;26.17;18.60;;;;;;;4.68;100.00;103768.47;2115184;28;20717;-61
2022/12/19 02:45:47;;;;;;;25.33;18.27;;;;;;;4.56;100.00;103727.84;2114516;28;20191;-61
2022/12/19 02:46:49;;;;;;;25.92;18.10;;;;;;;4.79;100.00;103767.06;2115149;28;20194;-61
2022/12/19 02:47:50;;;;;;;25.83;18.42;;;;;;;4.75;100.00;103766.91;2110560;28;20196;-61
2022/12/19 02:48:51;;;;;;;29.30;20.27;;;;;;;4.76;100.00;103762.19;2106137;28;20286;-61
2022/12/19 02:49:52;;;;;;;25.40;18.15;;;;;;;4.84;100.00;103764.16;2108947;28;20663;-61
2022/12/19 02:50:52;;;;;;;26.67;19.17;;;;;;;4.85;100.00;103765.78;2114555;28;20245;-61
2022/12/19 02:51:53;;;;;;;24.57;18.33;;;;;;;4.90;100.00;103762.91;2114738;28;20575;-61
2022/12/19 02:52:53;;;;;;;24.27;17.67;;;;;;;4.94;100.00;103769.38;2106828;28;20190;-61
2022/12/19 02:53:54;;;;;;;31.90;19.20;;;;;;;4.99;100.00;103763.75;2113853;28;20202;-61
2022/12/19 02:54:57;;;;;;;26.10;18.33;;;;;;;5.04;100.00;103763.59;2114982;28;20194;-61
2022/12/19 02:56:10;;;;;;;29.30;19.92;;;;;;;5.06;100.00;103769.56;2114441;28;20225;-61
2022/12/19 02:57:58;;;;;;;31.45;18.88;;;;;;;5.10;100.00;103759.56;2114789;28;20194;-61
2022/12/19 02:59:05;;;;;;;28.80;19.50;;;;;;;5.10;100.00;103759.56;2088378;28;20323;-61
2022/12/19 03:00:08;;;;;;;28.17;18.80;;;;;;;5.10;100.00;103763.13;2114886;27;20189;-61
2022/12/19 03:01:23;;;;;;;26.23;18.75;;;;;;;5.07;100.00;103763.75;2122015;27;20208;-61
2022/12/19 03:02:42;;;;;;;27.13;18.70;;;;;;;5.10;100.00;103760.38;2114556;28;20174;-61
2022/12/19 03:04:04;;;;;;;28.20;18.45;;;;;;;5.17;100.00;103746.13;2114072;28;20576;-61
2022/12/19 03:05:29;;;;;;;27.38;18.95;;;;;;;5.19;100.00;103754.91;2114474;28;20190;-61
2022/12/19 03:06:42;;;;;;;28.88;19.05;;;;;;;5.17;100.00;103757.13;2108061;28;20188;-61
2022/12/19 03:07:53;;;;;;;28.05;18.30;;;;;;;5.17;100.00;103752.47;2113961;28;20202;-61
2022/12/19 03:09:06;;;;;;;28.60;19.15;;;;;;;5.19;100.00;103752.16;2114637;28;20194;-61
2022/12/19 03:10:06;;;;;;;26.80;19.33;;;;;;;5.25;100.00;103756.34;2114649;28;20199;-61
2022/12/19 03:11:10;;;;;;;25.90;18.07;;;;;;;5.24;100.00;103752.78;2107517;28;20202;-61
2022/12/19 03:12:19;;;;;;;30.60;19.83;;;;;;;5.24;100.00;103760.25;2106629;28;20660;-61
2022/12/19 03:13:32;;;;;;;28.58;18.75;;;;;;;5.24;100.00;103765.75;2113056;28;20259;-61
2022/12/19 03:14:34;;;;;;;28.92;18.25;;;;;;;5.21;100.00;103758.13;2108139;28;20179;-61
2022/12/19 03:15:36;;;;;;;27.10;18.35;;;;;;;5.22;100.00;103757.81;2105930;28;20216;-61
2022/12/19 03:16:37;;;;;;;26.30;19.02;;;;;;;5.23;100.00;103755.88;2106243;28;20188;-61
2022/12/19 03:17:38;;;;;;;26.97;18.83;;;;;;;5.22;100.00;103757.00;2106355;28;20667;-61
2022/12/19 03:18:39;;;;;;;26.50;18.92;;;;;;;5.06;100.00;103740.16;2105530;28;20202;-61
2022/12/19 03:19:40;;;;;;;25.73;18.83;;;;;;;5.22;100.00;103766.06;2105880;28;20297;-61
2022/12/19 03:20:49;;;;;;;26.07;17.57;;;;;;;5.22;100.00;103755.06;2105798;28;20179;-61
2022/12/19 03:21:51;;;;;;;25.52;17.85;;;;;;;5.25;100.00;103756.34;2106287;28;20918;-61
2022/12/19 03:22:52;;;;;;;25.50;18.20;;;;;;;5.28;100.00;103761.22;2114764;28;20192;-61
2022/12/19 03:23:54;;;;;;;26.17;17.77;;;;;;;5.22;100.00;103746.81;2114633;28;20233;-61
2022/12/19 03:24:54;;;;;;;25.35;17.90;;;;;;;5.29;100.00;103762.84;2114752;28;20274;-61
2022/12/19 03:26:01;;;;;;;26.43;18.13;;;;;;;4.56;100.00;103648.19;2108319;28;20186;-61
2022/12/19 03:27:13;;;;;;;24.48;18.17;;;;;;;5.24;100.00;103769.28;2112119;28;20193;-61
2022/12/19 03:28:33;;;;;;;27.05;19.23;;;;;;;5.22;100.00;103768.81;2114588;28;20698;-61
2022/12/19 03:29:55;;;;;;;28.38;18.70;;;;;;;4.90;100.00;103724.41;2114621;28;20233;-61
2022/12/19 03:30:58;;;;;;;26.95;17.90;;;;;;;5.12;100.00;103765.56;2114747;28;20162;-61
2022/12/19 03:32:04;;;;;;;28.35;19.13;;;;;;;5.11;100.00;103767.50;2105941;28;20171;-61
2022/12/19 03:33:08;;;;;;;24.27;17.88;;;;;;;4.56;100.00;103683.91;2114413;28;20272;-61
2022/12/19 03:34:17;;;;;;;26.95;18.67;;;;;;;5.13;100.00;103767.97;2114906;28;20725;-61
2022/12/19 03:35:24;;;;;;;25.23;19.02;;;;;;;5.14;100.00;103771.53;2107249;28;20183;-61
2022/12/19 03:36:31;;;;;;;27.80;18.77;;;;;;;5.12;100.00;103774.59;2113177;28;20619;-61
2022/12/19 03:37:36;;;;;;;26.23;18.83;;;;;;;5.13;100.00;103775.44;2114598;28;20208;-61
2022/12/19 03:38:39;;;;;;;26.33;18.65;;;;;;;4.71;100.00;103715.63;2114257;28;20561;-61
2022/12/19 03:39:42;;;;;;;24.40;17.83;;;;;;;5.08;100.00;103773.63;2114643;28;20619;-61
2022/12/19 03:40:46;;;;;;;25.63;18.17;;;;;;;5.08;100.00;103779.13;2114230;28;20190;-61
2022/12/19 03:43:09;;;;;;;26.05;17.73;;;;;;;4.13;100.00;103628.03;2114217;28;20194;-61
2022/12/19 03:44:14;;;;;;;25.10;18.42;;;;;;;5.04;100.00;103769.09;2106191;28;20293;-61
2022/12/19 03:45:22;;;;;;;26.98;18.50;;;;;;;5.05;100.00;103774.28;2110480;28;20202;-61
2022/12/19 03:46:25;;;;;;;27.13;17.92;;;;;;;5.04;100.00;103777.34;2109851;28;20675;-61
2022/12/19 03:47:43;;;;;;;26.08;18.02;;;;;;;5.04;100.00;103782.84;2106144;28;20193;-61
2022/12/19 03:48:50;;;;;;;25.45;18.15;;;;;;;4.85;100.00;103746.56;2110375;28;20178;-61
2022/12/19 03:49:51;;;;;;;27.35;18.83;;;;;;;5.00;100.00;103774.41;2114658;27;20274;-61
2022/12/19 03:51:08;;;;;;;29.33;19.40;;;;;;;4.99;100.00;103777.47;2110610;28;20187;-61
2022/12/19 03:52:25;;;;;;;26.88;19.05;;;;;;;4.94;100.00;103767.47;2106093;28;20209;-61
2022/12/19 03:53:51;;;;;;;28.15;19.63;;;;;;;4.94;100.00;103772.13;2106166;28;20632;-61
2022/12/19 03:55:18;;;;;;;35.58;20.55;;;;;;;4.84;100.00;103758.69;2095817;28;20257;-61
2022/12/19 03:56:37;;;;;;;28.05;18.90;;;;;;;4.92;100.00;103780.69;2114360;27;20722;-61
2022/12/19 03:57:49;;;;;;;30.20;19.48;;;;;;;4.94;100.00;103788.63;2126468;27;20604;-61
2022/12/19 03:58:59;;;;;;;29.05;19.40;;;;;;;4.96;100.00;103809.16;2114158;28;20623;-61
2022/12/19 04:00:11;;;;;;;30.38;19.85;;;;;;;4.91;100.00;103790.06;2114180;27;20167;-61
2022/12/19 04:01:12;;;;;;;29.65;19.65;;;;;;;4.89;100.00;103786.84;2113790;28;20209;-61
2022/12/19 04:02:15;;;;;;;28.87;20.00;;;;;;;4.85;100.00;103790.53;2114552;28;20178;-61
2022/12/19 04:03:18;;;;;;;30.50;20.42;;;;;;;4.75;100.00;103791.63;2113053;28;20197;-61
2022/12/19 04:04:20;;;;;;;27.13;19.33;;;;;;;4.66;100.00;103789.97;2105861;28;20179;-61
2022/12/19 04:05:24;;;;;;;28.00;21.92;;;;;;;4.62;100.00;103797.22;2106427;28;20174;-61
2022/12/19 04:06:29;;;;;;;27.48;19.75;;;;;;;4.59;100.00;103797.84;2113840;28;20689;-61
2022/12/19 04:07:31;;;;;;;27.40;20.52;;;;;;;4.62;100.00;103797.22;2114238;28;20229;-61
2022/12/19 04:08:32;;;;;;;29.73;20.52;;;;;;;4.62;100.00;103799.97;2107371;28;20194;-61
2022/12/19 04:09:36;;;;;;;28.95;20.98;;;;;;;3.76;100.00;103661.41;2106121;28;20556;-61
2022/12/19 04:11:13;;;;;;;30.05;21.20;;;;;;;4.64;100.00;103798.53;2105463;28;20277;-61
2022/12/19 04:12:18;;;;;;;29.50;20.02;;;;;;;4.65;100.00;103797.38;2106092;28;20182;-61
2022/12/19 04:13:26;;;;;;;28.75;20.05;;;;;;;3.78;100.00;103659.16;2106036;28;20183;-61
2022/12/19 04:14:37;;;;;;;28.00;20.45;;;;;;;4.65;100.00;103788.31;2114070;28;20193;-61
2022/12/19 04:16:02;;;;;;;31.40;21.77;;;;;;;4.71;100.00;103787.06;2113692;28;20694;-61
2022/12/19 04:17:34;;;;;;;30.58;20.85;;;;;;;4.65;100.00;103793.81;2114041;28;20246;-61
2022/12/19 04:18:36;;;;;;;29.55;20.23;;;;;;;4.65;100.00;103794.66;2113881;28;20194;-61
2022/12/19 04:19:47;;;;;;;31.73;20.70;;;;;;;3.83;100.00;103694.69;2114288;28;20192;-61
2022/12/19 04:21:00;;;;;;;30.40;21.45;;;;;;;4.30;100.00;103773.59;2113791;28;20198;-61
2022/12/19 04:22:16;;;;;;;29.58;20.40;;;;;;;4.37;100.00;103775.91;2113784;28;20205;-61
2022/12/19 04:23:26;;;;;;;28.25;20.80;;;;;;;4.58;100.00;103809.97;2113927;28;20197;-61
2022/12/19 04:24:36;;;;;;;29.50;20.67;;;;;;;4.58;100.00;103799.78;2114403;28;20200;-61
2022/12/19 04:25:41;;;;;;;32.28;21.25;;;;;;;4.56;100.00;103790.25;2113609;28;20186;-61
2022/12/19 04:26:45;;;;;;;29.73;21.20;;;;;;;4.62;100.00;103802.72;2118802;27;20667;-61
2022/12/19 04:27:54;;;;;;;27.02;19.45;;;;;;;4.67;100.00;103806.13;2118742;27;20269;-61
2022/12/19 04:29:02;;;;;;;27.67;20.13;;;;;;;4.73;100.00;103806.81;2113792;28;20681;-61
2022/12/19 04:30:06;;;;;;;27.33;19.95;;;;;;;4.49;100.00;103781.63;2113783;28;20235;-61
2022/12/19 04:31:11;;;;;;;27.75;20.23;;;;;;;4.61;100.00;103790.09;2121487;27;20197;-61
2022/12/19 04:32:13;;;;;;;31.92;21.15;;;;;;;4.76;100.00;103806.97;2119021;27;20700;-61
2022/12/19 04:33:14;;;;;;;31.20;20.83;;;;;;;4.82;100.00;103805.69;2107140;28;20245;-61
2022/12/19 04:34:19;;;;;;;30.23;21.77;;;;;;;4.78;100.00;103807.47;2113790;28;20174;-61
2022/12/19 04:35:20;;;;;;;30.60;20.45;;;;;;;4.71;100.00;103809.03;2106133;28;20181;-61
2022/12/19 04:36:21;;;;;;;32.03;21.00;;;;;;;4.70;100.00;103801.94;2105111;28;20191;-61
2022/12/19 04:37:21;;;;;;;29.53;21.23;;;;;;;4.27;100.00;103737.75;2112999;28;20185;-61
2022/12/19 04:38:22;;;;;;;28.97;21.40;;;;;;;4.70;100.00;103810.16;2113605;28;20205;-61
2022/12/19 04:39:22;;;;;;;30.60;20.57;;;;;;;4.70;100.00;103804.69;2109419;28;20584;-61
2022/12/19 04:40:23;;;;;;;34.43;21.10;;;;;;;4.72;100.00;103807.94;2108971;28;20189;-61
2022/12/19 04:41:23;;;;;;;30.97;21.23;;;;;;;4.73;100.00;103806.81;2113638;28;20285;-61
2022/12/19 04:42:24;;;;;;;30.50;21.93;;;;;;;4.75;100.00;103805.34;2114025;28;20196;-61
2022/12/19 04:43:24;;;;;;;31.97;21.50;;;;;;;4.78;100.00;103801.97;2113471;28;20177;-61
2022/12/19 04:44:24;;;;;;;28.97;21.37;;;;;;;4.78;100.00;103807.47;2105840;28;20246;-61
2022/12/19 04:45:25;;;;;;;29.40;21.13;;;;;;;4.79;100.00;103808.28;2105559;28;20191;-61
2022/12/19 04:46:25;;;;;;;29.70;20.73;;;;;;;4.83;100.00;103809.28;2105394;28;20178;-61
2022/12/19 04:47:26;;;;;;;30.60;21.30;;;;;;;4.48;100.00;103750.63;2105752;28;20193;-61
2022/12/19 04:48:26;;;;;;;29.47;20.67;;;;;;;4.89;100.00;103805.25;2109298;28;20261;-61
2022/12/19 04:49:27;;;;;;;31.17;21.80;;;;;;;4.86;100.00;103808.63;2111353;28;20179;-61
2022/12/19 04:50:27;;;;;;;31.97;21.93;;;;;;;4.87;100.00;103807.53;2105263;28;20663;-61
2022/12/19 04:51:28;;;;;;;33.10;21.90;;;;;;;4.75;100.00;103793.53;2104711;28;20232;-61
2022/12/19 04:52:28;;;;;;;30.63;21.50;;;;;;;4.87;100.00;103813.81;2113741;28;20176;-61
2022/12/19 04:53:29;;;;;;;30.77;20.97;;;;;;;4.90;100.00;103812.38;2114068;28;20654;-61
2022/12/19 04:54:31;;;;;;;32.50;21.73;;;;;;;4.75;100.00;103783.38;2114051;28;20273;-62
2022/12/19 04:55:32;;;;;;;31.15;21.98;;;;;;;4.95;100.00;103826.78;2111984;28;20192;-66
2022/12/19 04:56:32;;;;;;;31.60;21.27;;;;;;;5.00;100.00;103812.09;2112612;28;20207;-64
2022/12/19 04:57:33;;;;;;;29.87;21.33;;;;;;;5.01;100.00;103809.03;2111938;28;20208;-64
2022/12/19 04:58:33;;;;;;;33.37;21.10;;;;;;;4.40;100.00;103707.44;2110852;28;20670;-64
2022/12/19 04:59:34;;;;;;;30.77;21.33;;;;;;;5.09;100.00;103815.69;2105478;28;20178;-63
2022/12/19 05:00:34;;;;;;;31.67;20.73;;;;;;;5.15;100.00;103811.66;2105646;28;20177;-61